Time;durP1;ratioP1;P1;durP2;ratioP2;P2;SDS_P1;SDS_P2;PMS_P1;PMS_P2;Temp;Humidity;BMP_temperature;BMP_pressure;BME280_temperature;BME280_humidity;BME280_pressure;Samples;Min_cycle;Max_cycle;Signal;HPM_P1;HPM_P2
2022/10/14 00:01:35;;;;;;;2.20;1.00;;;13.10;99.90;;;;;;5085629;28;20550;-51
2022/10/14 00:04:02;;;;;;;6.77;1.40;;;13.20;99.90;;;;;;5075390;28;20196;-50
2022/10/14 00:06:31;;;;;;;1.43;1.40;;;13.20;99.90;;;;;;5075659;28;20205;-50
2022/10/14 00:09:00;;;;;;;2.73;2.40;;;13.20;99.90;;;;;;5075737;28;20201;-50
2022/10/14 00:11:30;;;;;;;3.40;2.90;;;13.20;99.90;;;;;;5090754;28;20203;-51
2022/10/14 00:13:59;;;;;;;5.40;4.50;;;13.20;99.90;;;;;;5095395;28;20214;-51
2022/10/14 00:16:29;;;;;;;6.00;5.43;;;13.20;99.90;;;;;;5087812;28;20749;-51
2022/10/14 00:18:58;;;;;;;8.10;7.30;;;13.20;99.90;;;;;;5086379;28;20210;-50
2022/10/14 00:21:26;;;;;;;7.57;6.77;;;13.20;99.90;;;;;;5093718;28;20565;-52
2022/10/14 00:23:53;;;;;;;9.47;8.57;;;13.20;99.90;;;;;;5078541;28;20211;-50
2022/10/14 00:26:22;;;;;;;8.90;8.00;;;13.30;99.90;;;;;;5086198;28;20205;-51
2022/10/14 00:28:50;;;;;;;10.63;9.03;;;13.30;99.90;;;;;;5074732;28;20197;-50
2022/10/14 00:31:18;;;;;;;12.43;9.83;;;13.30;99.90;;;;;;5092488;28;20200;-51
2022/10/14 00:33:45;;;;;;;11.63;10.03;;;13.30;99.90;;;;;;5084984;28;20229;-50
2022/10/14 00:36:16;;;;;;;10.03;9.03;;;13.30;99.90;;;;;;5083492;28;20205;-50
2022/10/14 00:38:47;;;;;;;12.43;10.17;;;13.30;99.90;;;;;;5075157;28;20593;-51
2022/10/14 00:41:17;;;;;;;10.53;9.43;;;13.30;99.90;;;;;;5077851;28;20261;-51
2022/10/14 00:44:00;;;;;;;12.67;10.67;;;13.20;99.90;;;;;;5083331;28;20215;-50
2022/10/14 00:46:29;;;;;;;12.23;9.53;;;13.20;99.90;;;;;;5080074;28;20218;-50
2022/10/14 00:48:57;;;;;;;11.30;10.00;;;13.20;99.90;;;;;;5078602;28;20200;-51
2022/10/14 00:51:26;;;;;;;11.10;9.40;;;13.20;99.90;;;;;;5086640;28;20199;-51
2022/10/14 00:53:53;;;;;;;10.33;8.80;;;13.20;99.90;;;;;;5094742;28;20221;-51
2022/10/14 00:56:26;;;;;;;14.20;9.27;;;13.20;99.90;;;;;;5094263;28;20697;-50
2022/10/14 00:58:53;;;;;;;10.60;9.50;;;13.20;99.90;;;;;;5087177;28;20209;-50
2022/10/14 01:01:20;;;;;;;11.97;9.23;;;13.20;99.90;;;;;;5079090;28;20201;-51
2022/10/14 01:03:48;;;;;;;11.83;9.37;;;13.20;99.90;;;;;;5090059;28;20215;-50
2022/10/14 01:06:22;;;;;;;10.77;9.63;;;13.20;99.90;;;;;;5082216;28;20197;-51
2022/10/14 01:08:59;;;;;;;9.37;7.37;;;13.20;99.90;;;;;;5080618;28;20200;-50
2022/10/14 01:11:34;;;;;;;11.33;7.97;;;13.20;99.90;;;;;;5083766;28;20203;-51
2022/10/14 01:14:14;;;;;;;8.10;7.27;;;13.20;99.90;;;;;;5083477;28;20215;-51
2022/10/14 01:16:53;;;;;;;8.37;7.20;;;13.20;99.90;;;;;;5076959;28;20208;-50
2022/10/14 01:19:41;;;;;;;9.43;8.00;;;13.20;99.90;;;;;;5081915;28;20206;-51
2022/10/14 01:22:16;;;;;;;9.00;7.33;;;13.20;99.90;;;;;;5083981;28;20311;-50
2022/10/14 01:25:00;;;;;;;8.60;6.83;;;13.20;99.90;;;;;;5076052;28;20196;-51
2022/10/14 01:27:54;;;;;;;8.17;7.37;;;13.20;99.90;;;;;;5078563;28;20589;-51
2022/10/14 01:30:24;;;;;;;7.23;6.33;;;13.20;99.90;;;;;;5074181;28;20220;-50
2022/10/14 01:33:04;;;;;;;6.57;5.97;;;13.30;99.90;;;;;;5074002;28;20221;-51
2022/10/14 01:35:41;;;;;;;7.40;6.00;;;13.30;99.90;;;;;;5080039;28;20227;-51
2022/10/14 01:38:14;;;;;;;4.80;4.50;;;13.30;99.90;;;;;;5082263;28;20614;-50
2022/10/14 01:40:48;;;;;;;6.30;4.30;;;13.30;99.90;;;;;;5085121;28;20246;-50
2022/10/14 01:43:17;;;;;;;5.47;4.47;;;13.30;99.90;;;;;;5073542;28;20254;-50
2022/10/14 01:45:48;;;;;;;4.83;3.90;;;13.20;99.90;;;;;;5073761;28;20201;-51
2022/10/14 01:48:18;;;;;;;5.10;3.70;;;13.10;99.90;;;;;;5073617;28;20197;-51
2022/10/14 01:50:50;;;;;;;3.60;3.37;;;13.10;99.90;;;;;;5086204;28;20203;-50
2022/10/14 01:53:22;;;;;;;3.43;3.23;;;13.10;99.90;;;;;;5091417;28;20220;-51
2022/10/14 01:55:51;;;;;;;3.70;3.40;;;13.00;99.90;;;;;;5081727;28;20276;-51
2022/10/14 01:58:22;;;;;;;2.80;2.70;;;13.00;99.90;;;;;;5079201;28;20220;-51
2022/10/14 02:00:50;;;;;;;3.37;2.97;;;13.00;99.90;;;;;;5081341;28;20203;-51
2022/10/14 02:03:18;;;;;;;3.40;3.20;;;13.00;99.90;;;;;;5081982;28;20219;-50
2022/10/14 02:05:51;;;;;;;2.73;2.53;;;13.00;99.90;;;;;;5089092;28;20221;-50
2022/10/14 02:08:26;;;;;;;2.60;2.40;;;13.10;99.90;;;;;;5085973;28;20210;-50
2022/10/14 02:11:09;;;;;;;3.43;2.53;;;13.10;99.90;;;;;;5083790;28;20295;-50
2022/10/14 02:13:51;;;;;;;2.40;2.23;;;13.00;99.90;;;;;;5080351;28;20220;-50
2022/10/14 02:16:29;;;;;;;2.87;2.60;;;13.00;99.90;;;;;;5086150;28;20201;-51
2022/10/14 02:19:02;;;;;;;2.47;2.37;;;12.90;99.90;;;;;;5075028;28;20239;-51
2022/10/14 02:21:42;;;;;;;2.60;2.40;;;12.90;99.90;;;;;;5087223;28;20203;-51
2022/10/14 02:24:13;;;;;;;2.43;2.23;;;12.90;99.90;;;;;;5084406;28;20196;-51
2022/10/14 02:26:42;;;;;;;1.67;1.57;;;12.90;99.90;;;;;;5090944;28;20204;-51
2022/10/14 02:29:09;;;;;;;14.03;3.73;;;12.90;99.90;;;;;;5077132;28;20265;-51
2022/10/14 02:31:39;;;;;;;3.07;2.87;;;12.80;99.90;;;;;;5088043;28;20203;-51
2022/10/14 02:34:10;;;;;;;5.00;3.97;;;12.80;99.90;;;;;;5081839;28;20207;-51
2022/10/14 02:36:38;;;;;;;4.67;4.37;;;12.90;99.90;;;;;;5074778;28;20201;-50
2022/10/14 02:39:07;;;;;;;6.97;4.83;;;12.90;99.90;;;;;;5071768;28;20209;-51
2022/10/14 02:41:37;;;;;;;6.20;5.70;;;12.90;99.90;;;;;;5081041;28;20196;-51
2022/10/14 02:44:05;;;;;;;6.83;5.70;;;12.80;99.90;;;;;;5084289;28;20627;-50
2022/10/14 02:46:33;;;;;;;6.83;5.20;;;12.90;99.90;;;;;;5091994;28;20261;-51
2022/10/14 02:49:02;;;;;;;4.60;4.27;;;12.90;99.90;;;;;;5080673;28;20249;-51
2022/10/14 02:51:29;;;;;;;5.67;4.97;;;13.00;99.90;;;;;;5081346;28;20250;-51
2022/10/14 02:53:56;;;;;;;5.70;5.20;;;12.90;99.90;;;;;;5082457;28;20892;-51
2022/10/14 02:56:24;;;;;;;8.93;5.20;;;12.90;99.90;;;;;;5092683;28;20224;-51
2022/10/14 02:58:51;;;;;;;6.07;5.07;;;12.90;99.90;;;;;;5092776;28;20626;-51
2022/10/14 03:01:18;;;;;;;5.47;4.97;;;12.90;99.90;;;;;;5087467;28;20617;-51
2022/10/14 03:03:45;;;;;;;8.20;4.93;;;12.90;99.90;;;;;;5087828;28;20635;-51
2022/10/14 03:06:13;;;;;;;5.23;4.70;;;12.80;99.90;;;;;;5082218;28;20202;-52
2022/10/14 03:08:44;;;;;;;6.00;4.67;;;12.80;99.90;;;;;;5087869;28;20806;-51
2022/10/14 03:11:11;;;;;;;4.80;4.43;;;12.80;99.90;;;;;;5087129;28;20275;-51
2022/10/14 03:13:38;;;;;;;4.63;4.23;;;12.80;99.90;;;;;;5074905;28;20714;-50
2022/10/14 03:16:05;;;;;;;4.97;4.47;;;12.80;99.90;;;;;;5079259;28;20219;-51
2022/10/14 03:18:32;;;;;;;4.40;4.10;;;12.80;99.90;;;;;;5083620;28;20198;-51
2022/10/14 03:20:59;;;;;;;5.17;4.67;;;12.80;99.90;;;;;;5083370;28;20197;-51
2022/10/14 03:23:27;;;;;;;4.17;3.97;;;12.80;99.90;;;;;;5091764;28;20282;-51
2022/10/14 03:25:54;;;;;;;5.10;4.70;;;12.80;99.90;;;;;;5092221;28;20196;-51
2022/10/14 03:28:21;;;;;;;5.47;5.07;;;12.80;99.90;;;;;;5084051;28;20253;-51
2022/10/14 03:30:48;;;;;;;7.10;6.33;;;12.80;99.90;;;;;;5086366;28;20289;-51
2022/10/14 03:33:15;;;;;;;8.73;6.67;;;12.80;99.90;;;;;;5082502;28;20223;-51
2022/10/14 03:35:42;;;;;;;7.17;6.27;;;12.80;99.90;;;;;;5074770;28;20217;-51
2022/10/14 03:38:09;;;;;;;6.23;5.73;;;12.80;99.90;;;;;;5085813;28;20197;-51
2022/10/14 03:40:38;;;;;;;6.00;5.50;;;12.80;99.90;;;;;;5081162;28;20195;-50
2022/10/14 03:43:04;;;;;;;5.77;5.33;;;12.80;99.90;;;;;;5083898;28;20219;-51
2022/10/14 03:45:31;;;;;;;5.43;4.93;;;12.80;99.90;;;;;;5082546;28;20200;-51
2022/10/14 03:47:58;;;;;;;5.87;4.77;;;12.80;99.90;;;;;;5078859;28;20201;-51
2022/10/14 03:50:25;;;;;;;5.13;4.73;;;12.80;99.90;;;;;;5090347;28;20252;-51
2022/10/14 03:52:52;;;;;;;7.23;5.43;;;12.80;99.90;;;;;;5080941;28;20274;-51
2022/10/14 03:55:19;;;;;;;6.23;5.63;;;12.80;99.90;;;;;;5082013;28;20219;-51
2022/10/14 03:57:48;;;;;;;6.30;5.70;;;12.80;99.90;;;;;;5081730;28;20201;-51
2022/10/14 04:00:16;;;;;;;8.53;5.70;;;12.80;99.90;;;;;;5084654;28;20286;-50
2022/10/14 04:02:43;;;;;;;7.10;5.80;;;12.80;99.90;;;;;;5080491;28;20222;-51
2022/10/14 04:05:11;;;;;;;7.57;5.03;;;12.80;99.90;;;;;;5072245;28;20278;-51
2022/10/14 04:07:38;;;;;;;5.00;4.70;;;12.80;99.90;;;;;;5090463;28;20203;-51
2022/10/14 04:10:06;;;;;;;6.27;5.63;;;12.80;99.90;;;;;;5090495;28;20200;-51
2022/10/14 04:12:33;;;;;;;5.93;5.37;;;12.70;99.90;;;;;;5079279;28;20223;-53
2022/10/14 04:15:01;;;;;;;8.13;7.00;;;12.80;99.90;;;;;;5083530;28;20261;-51
2022/10/14 04:17:28;;;;;;;7.77;7.17;;;12.80;99.90;;;;;;5072037;28;20250;-51
2022/10/14 04:19:55;;;;;;;7.20;6.33;;;12.80;99.90;;;;;;5082687;28;20573;-51
2022/10/14 04:22:23;;;;;;;11.73;7.50;;;12.80;99.90;;;;;;5079128;28;20595;-51
2022/10/14 04:24:50;;;;;;;7.53;6.83;;;12.70;99.90;;;;;;5077498;28;20757;-51
2022/10/14 04:27:17;;;;;;;8.70;7.87;;;12.70;99.90;;;;;;5077195;28;20203;-51
2022/10/14 04:29:44;;;;;;;7.43;6.77;;;12.60;99.90;;;;;;5071373;28;20241;-51
2022/10/14 04:32:13;;;;;;;7.40;6.80;;;12.60;99.90;;;;;;5072102;28;20255;-51
2022/10/14 04:34:40;;;;;;;9.87;7.30;;;12.60;99.90;;;;;;5073849;28;20200;-51
2022/10/14 04:37:07;;;;;;;7.87;6.23;;;12.60;99.90;;;;;;5081296;28;20597;-51
2022/10/14 04:39:34;;;;;;;7.10;6.27;;;12.60;99.90;;;;;;5077662;28;20208;-56
2022/10/14 04:42:01;;;;;;;7.87;7.00;;;12.60;99.90;;;;;;5077352;28;20601;-51
2022/10/14 04:44:28;;;;;;;8.50;7.70;;;12.60;99.90;;;;;;5085492;28;20246;-51
2022/10/14 04:46:55;;;;;;;8.17;6.90;;;12.50;99.90;;;;;;5080787;28;20199;-51
2022/10/14 04:49:24;;;;;;;7.33;6.40;;;12.50;99.90;;;;;;5085221;28;20205;-51
2022/10/14 04:51:51;;;;;;;7.03;6.33;;;12.50;99.90;;;;;;5085682;28;20229;-51
2022/10/14 04:54:18;;;;;;;10.03;6.27;;;12.50;99.90;;;;;;5082018;28;20200;-51
2022/10/14 04:56:45;;;;;;;6.57;6.17;;;12.60;99.90;;;;;;5083300;28;20216;-51
2022/10/14 04:59:12;;;;;;;7.13;6.63;;;12.60;99.90;;;;;;5082798;28;20673;-51
2022/10/14 05:01:39;;;;;;;9.73;6.87;;;12.60;99.90;;;;;;5080427;28;20272;-51
2022/10/14 05:04:06;;;;;;;7.17;6.47;;;12.60;99.90;;;;;;5082688;28;20254;-51
2022/10/14 05:06:36;;;;;;;6.60;6.00;;;12.60;99.90;;;;;;5080455;28;20196;-51
2022/10/14 05:09:03;;;;;;;7.20;5.60;;;12.60;99.90;;;;;;5081377;28;20283;-51
2022/10/14 05:11:30;;;;;;;5.23;4.73;;;12.60;99.90;;;;;;5075056;28;20200;-52
2022/10/14 05:13:57;;;;;;;4.37;4.07;;;12.60;99.90;;;;;;5082433;28;20207;-51
2022/10/14 05:16:25;;;;;;;4.93;4.53;;;12.60;99.90;;;;;;5087369;28;20236;-51
2022/10/14 05:18:53;;;;;;;4.23;3.93;;;12.60;99.90;;;;;;5079938;28;20219;-51
2022/10/14 05:21:20;;;;;;;3.77;3.53;;;12.60;99.90;;;;;;5081042;28;20232;-51
2022/10/14 05:23:48;;;;;;;6.40;3.23;;;12.60;99.90;;;;;;5079222;28;20814;-51
2022/10/14 05:26:15;;;;;;;3.40;3.20;;;12.60;99.90;;;;;;5084408;28;20197;-51
2022/10/14 05:28:43;;;;;;;3.70;2.80;;;12.60;99.90;;;;;;5081618;28;20204;-51
2022/10/14 05:31:10;;;;;;;4.70;2.90;;;12.60;99.90;;;;;;5087289;28;20203;-51
2022/10/14 05:33:41;;;;;;;4.03;3.73;;;12.60;99.90;;;;;;5076393;28;20307;-51
2022/10/14 05:36:08;;;;;;;4.70;2.87;;;12.60;99.90;;;;;;5081366;28;20299;-51
2022/10/14 05:38:35;;;;;;;4.30;3.90;;;12.60;99.90;;;;;;5085193;28;20193;-51
2022/10/14 05:41:04;;;;;;;3.97;3.67;;;12.60;99.90;;;;;;5081611;28;20193;-51
2022/10/14 05:43:31;;;;;;;3.53;3.33;;;12.60;99.90;;;;;;5087939;28;20293;-51
2022/10/14 05:45:58;;;;;;;5.77;4.43;;;12.60;99.90;;;;;;5081227;28;20708;-51
2022/10/14 05:48:25;;;;;;;4.03;3.83;;;12.70;99.90;;;;;;5091853;28;20192;-51
2022/10/14 05:50:52;;;;;;;4.70;4.30;;;12.70;99.90;;;;;;5087634;28;20205;-51
2022/10/14 05:53:19;;;;;;;4.00;3.70;;;12.60;99.90;;;;;;5081458;28;20644;-51
2022/10/14 05:55:46;;;;;;;3.33;3.13;;;12.60;99.90;;;;;;5088755;28;20315;-51
2022/10/14 05:58:14;;;;;;;3.83;3.53;;;12.60;99.90;;;;;;5093881;28;20196;-52
2022/10/14 06:00:41;;;;;;;3.83;3.53;;;12.60;99.90;;;;;;5091835;28;20208;-51
2022/10/14 06:03:11;;;;;;;4.03;3.70;;;12.60;99.90;;;;;;5084912;28;20294;-51
2022/10/14 06:05:38;;;;;;;3.50;3.30;;;12.60;99.90;;;;;;5081609;28;20246;-51
2022/10/14 06:08:07;;;;;;;4.17;3.87;;;12.60;99.90;;;;;;5086934;28;20199;-51
2022/10/14 06:10:35;;;;;;;3.37;2.90;;;12.70;99.90;;;;;;5079251;28;20192;-51
2022/10/14 06:13:02;;;;;;;3.30;3.00;;;12.70;99.90;;;;;;5075909;28;20213;-51
2022/10/14 06:15:31;;;;;;;4.57;3.53;;;12.70;99.90;;;;;;5080247;28;20439;-51
2022/10/14 06:17:58;;;;;;;4.07;3.77;;;12.70;99.90;;;;;;5080053;28;20239;-50
2022/10/14 06:20:25;;;;;;;3.90;3.20;;;12.80;99.90;;;;;;5080113;28;20204;-51
2022/10/14 06:22:53;;;;;;;3.60;3.40;;;12.80;99.90;;;;;;5081069;28;20224;-54
2022/10/14 06:25:20;;;;;;;4.10;3.87;;;12.80;99.90;;;;;;5082475;28;20193;-51
2022/10/14 06:27:48;;;;;;;3.67;3.47;;;12.80;99.90;;;;;;5079270;28;20208;-51
2022/10/14 06:30:15;;;;;;;3.20;3.00;;;12.80;99.90;;;;;;5080471;28;20213;-51
2022/10/14 06:32:44;;;;;;;3.77;3.47;;;12.80;99.90;;;;;;5083158;28;20230;-51
2022/10/14 06:35:12;;;;;;;5.50;5.00;;;12.90;99.90;;;;;;5079311;28;20204;-51
2022/10/14 06:37:39;;;;;;;4.33;3.50;;;13.00;99.90;;;;;;5082816;28;20200;-51
2022/10/14 06:40:07;;;;;;;4.33;4.03;;;13.00;99.90;;;;;;5081060;28;20208;-51
2022/10/14 06:42:34;;;;;;;2.60;2.50;;;13.10;99.90;;;;;;5082196;28;20224;-51
2022/10/14 06:45:01;;;;;;;5.47;2.30;;;13.10;99.90;;;;;;5082412;28;20202;-51
2022/10/14 06:47:28;;;;;;;3.17;2.93;;;13.10;99.90;;;;;;5081273;28;20658;-51
2022/10/14 06:49:57;;;;;;;3.23;2.93;;;13.20;99.90;;;;;;5081729;28;20196;-52
2022/10/14 06:52:25;;;;;;;3.20;2.90;;;13.20;99.90;;;;;;5077774;28;20312;-51
2022/10/14 06:54:52;;;;;;;2.57;2.37;;;13.30;99.90;;;;;;5081457;28;20661;-51
2022/10/14 06:57:19;;;;;;;7.10;2.97;;;13.30;99.90;;;;;;5081629;28;20231;-51
2022/10/14 06:59:46;;;;;;;3.47;3.27;;;13.40;99.90;;;;;;5085713;28;20397;-52
2022/10/14 07:02:13;;;;;;;2.60;2.50;;;13.40;99.90;;;;;;5083971;28;20215;-52
2022/10/14 07:04:40;;;;;;;3.33;2.60;;;13.40;99.90;;;;;;5090731;28;20204;-51
2022/10/14 07:07:09;;;;;;;3.93;1.97;;;13.40;99.90;;;;;;5087998;28;20731;-51
2022/10/14 07:09:36;;;;;;;2.10;2.00;;;13.40;99.90;;;;;;5085278;28;20203;-51
2022/10/14 07:12:04;;;;;;;1.50;1.47;;;13.40;99.90;;;;;;5075800;28;20228;-51
2022/10/14 07:14:30;;;;;;;2.67;2.03;;;13.40;99.90;;;;;;5082807;28;20287;-52
2022/10/14 07:16:59;;;;;;;1.63;1.00;;;13.40;99.90;;;;;;5085296;28;20643;-51
2022/10/14 07:19:26;;;;;;;1.70;1.60;;;13.30;99.90;;;;;;5081854;28;20737;-51
2022/10/14 07:21:53;;;;;;;2.30;2.07;;;13.30;99.90;;;;;;5081698;28;20228;-51
2022/10/14 07:24:21;;;;;;;3.03;2.37;;;13.30;99.90;;;;;;5080548;28;20219;-51
2022/10/14 07:26:48;;;;;;;2.27;2.10;;;13.30;99.90;;;;;;5080367;28;20200;-51
2022/10/14 07:29:15;;;;;;;1.67;1.57;;;13.40;99.90;;;;;;5082284;28;20203;-52
2022/10/14 07:31:42;;;;;;;1.50;1.40;;;13.40;99.90;;;;;;5082046;28;21309;-51
2022/10/14 07:34:10;;;;;;;1.70;1.60;;;13.40;99.90;;;;;;5082820;28;20200;-51
2022/10/14 07:36:37;;;;;;;1.57;1.47;;;13.50;99.90;;;;;;5081417;28;20212;-51
2022/10/14 07:39:05;;;;;;;1.40;1.40;;;13.60;99.90;;;;;;5073327;28;20698;-52
2022/10/14 07:41:33;;;;;;;4.53;1.40;;;13.60;99.90;;;;;;5071928;28;20239;-51
2022/10/14 07:44:07;;;;;;;2.53;2.33;;;13.70;99.90;;;;;;5088260;28;20263;-51
2022/10/14 07:46:36;;;;;;;2.60;1.47;;;13.80;99.90;;;;;;5079888;28;20196;-51
2022/10/14 07:49:04;;;;;;;4.00;1.57;;;13.90;99.90;;;;;;5085583;28;20658;-51
2022/10/14 07:51:32;;;;;;;1.87;1.77;;;14.00;99.90;;;;;;5085393;28;20203;-51
2022/10/14 07:54:01;;;;;;;1.87;1.77;;;14.00;99.90;;;;;;5085765;28;20292;-52
2022/10/14 07:56:29;;;;;;;6.00;2.60;;;14.00;99.90;;;;;;5091113;28;20277;-51
2022/10/14 07:58:59;;;;;;;3.57;3.27;;;14.00;99.90;;;;;;5090954;28;20192;-52
2022/10/14 08:01:26;;;;;;;4.67;4.37;;;13.90;99.90;;;;;;5084175;28;20269;-51
2022/10/14 08:03:52;;;;;;;3.50;2.73;;;13.90;99.90;;;;;;5088621;28;20289;-52
2022/10/14 08:06:20;;;;;;;2.93;2.83;;;13.90;99.90;;;;;;5090480;28;20548;-51
2022/10/14 08:08:47;;;;;;;2.67;2.53;;;13.90;99.90;;;;;;5090929;28;20200;-51
2022/10/14 08:11:17;;;;;;;3.20;2.90;;;14.00;99.90;;;;;;5078090;28;20201;-51
2022/10/14 08:13:47;;;;;;;3.00;2.90;;;14.00;99.90;;;;;;5079503;28;20216;-53
2022/10/14 08:16:19;;;;;;;3.13;2.70;;;13.90;99.90;;;;;;5085606;28;20208;-51
2022/10/14 08:18:47;;;;;;;3.50;2.83;;;14.00;99.90;;;;;;5086444;28;20200;-51
2022/10/14 08:21:15;;;;;;;3.70;3.53;;;14.00;99.90;;;;;;5089218;28;20201;-51
2022/10/14 08:23:45;;;;;;;20.33;19.03;;;14.00;99.90;;;;;;5090967;28;20216;-51
2022/10/14 08:26:21;;;;;;;12.07;11.27;;;14.10;99.90;;;;;;5087937;28;20196;-51
2022/10/14 08:28:49;;;;;;;5.27;4.80;;;14.10;99.90;;;;;;5084671;28;20257;-51
2022/10/14 08:31:17;;;;;;;5.07;4.20;;;14.10;99.90;;;;;;5088134;28;20810;-51
2022/10/14 08:33:44;;;;;;;3.60;2.60;;;14.10;99.90;;;;;;5085168;28;20217;-51
2022/10/14 08:36:12;;;;;;;2.80;2.60;;;14.20;99.90;;;;;;5093436;28;20257;-52
2022/10/14 08:38:39;;;;;;;4.00;3.80;;;14.20;99.90;;;;;;5085816;28;20606;-51
2022/10/14 08:41:18;;;;;;;2.73;2.57;;;14.20;99.90;;;;;;5086601;28;20216;-51
2022/10/14 08:43:52;;;;;;;2.00;1.87;;;14.30;99.90;;;;;;5093914;28;20212;-51
2022/10/14 08:46:25;;;;;;;2.13;2.03;;;14.30;99.90;;;;;;5085318;28;20259;-51
2022/10/14 08:49:01;;;;;;;2.43;2.33;;;14.40;99.90;;;;;;5090427;28;20253;-51
2022/10/14 08:51:31;;;;;;;2.63;2.43;;;14.50;99.90;;;;;;5083207;28;20254;-51
2022/10/14 08:54:07;;;;;;;3.27;2.57;;;14.60;99.90;;;;;;5093719;28;20192;-51
2022/10/14 08:56:36;;;;;;;2.40;2.20;;;14.70;99.90;;;;;;5088756;28;20215;-51
2022/10/14 08:59:07;;;;;;;9.90;4.10;;;14.80;99.90;;;;;;5086106;28;20273;-51
2022/10/14 09:01:44;;;;;;;2.20;2.10;;;14.80;99.90;;;;;;5086478;28;20235;-51
2022/10/14 09:04:14;;;;;;;3.20;2.87;;;14.90;99.90;;;;;;5086353;28;20200;-51
2022/10/14 09:06:44;;;;;;;3.37;3.10;;;14.80;99.90;;;;;;5085230;28;20612;-52
2022/10/14 09:09:19;;;;;;;5.97;2.10;;;14.70;99.90;;;;;;5093899;28;21321;-51
2022/10/14 09:11:50;;;;;;;2.13;2.00;;;14.60;99.90;;;;;;5093890;28;20191;-51
2022/10/14 09:14:20;;;;;;;2.47;2.30;;;14.60;99.90;;;;;;5091220;28;20204;-51
2022/10/14 09:16:54;;;;;;;3.30;2.97;;;14.60;99.90;;;;;;5093498;28;20220;-51
2022/10/14 09:19:28;;;;;;;3.03;2.77;;;14.60;99.90;;;;;;5090637;28;20253;-51
2022/10/14 09:21:56;;;;;;;1.93;1.87;;;14.60;99.90;;;;;;5092826;28;20318;-51
2022/10/14 09:24:26;;;;;;;2.60;2.40;;;14.60;99.90;;;;;;5092270;28;20235;-50
2022/10/14 09:26:58;;;;;;;3.30;3.00;;;14.60;99.90;;;;;;5082944;28;20197;-51
2022/10/14 09:29:26;;;;;;;3.63;2.90;;;14.60;99.90;;;;;;5080692;28;20197;-51
2022/10/14 09:31:58;;;;;;;5.63;3.50;;;14.60;99.90;;;;;;5093158;28;20249;-51
2022/10/14 09:34:31;;;;;;;3.10;2.80;;;14.60;99.90;;;;;;5085382;28;20204;-51
2022/10/14 09:37:06;;;;;;;3.03;2.83;;;14.70;99.90;;;;;;5080550;28;20205;-52
2022/10/14 09:39:37;;;;;;;2.50;2.40;;;14.80;99.90;;;;;;5082891;28;20258;-51
2022/10/14 09:42:05;;;;;;;3.43;2.37;;;14.80;99.90;;;;;;5084723;28;20224;-52
2022/10/14 09:44:32;;;;;;;2.03;1.77;;;14.80;99.90;;;;;;5082290;28;20621;-51
2022/10/14 09:47:04;;;;;;;2.63;2.20;;;14.80;99.90;;;;;;5081322;28;20267;-51
2022/10/14 09:49:39;;;;;;;1.77;1.67;;;14.80;99.90;;;;;;5081492;28;20193;-51
2022/10/14 09:52:07;;;;;;;2.47;1.97;;;14.90;99.90;;;;;;5073573;28;20216;-50
2022/10/14 09:54:34;;;;;;;3.17;2.30;;;15.00;99.90;;;;;;5078898;28;20193;-50
2022/10/14 09:57:06;;;;;;;3.27;2.33;;;15.00;99.90;;;;;;5084832;28;20216;-50
2022/10/14 09:59:34;;;;;;;2.47;2.00;;;15.10;99.90;;;;;;5093440;28;20208;-50
2022/10/14 10:02:04;;;;;;;3.47;2.50;;;15.00;99.90;;;;;;5073297;28;20225;-50
2022/10/14 10:04:36;;;;;;;2.53;2.20;;;15.00;99.90;;;;;;5078198;28;20212;-49
2022/10/14 10:07:06;;;;;;;3.13;2.53;;;15.00;99.90;;;;;;5080944;28;20247;-49
2022/10/14 10:09:34;;;;;;;4.13;3.03;;;14.90;99.90;;;;;;5092990;28;20604;-52
2022/10/14 10:12:22;;;;;;;4.33;2.53;;;14.80;99.90;;;;;;5090478;28;20645;-51
2022/10/14 10:14:57;;;;;;;2.83;2.63;;;14.90;99.90;;;;;;5092941;28;20207;-51
2022/10/14 10:17:26;;;;;;;4.77;3.03;;;14.90;99.90;;;;;;5077432;28;20717;-51
2022/10/14 10:20:08;;;;;;;4.23;2.73;;;14.90;99.90;;;;;;5092045;28;20283;-50
2022/10/14 10:22:37;;;;;;;2.90;2.80;;;15.00;99.90;;;;;;5076290;28;20221;-50
2022/10/14 10:25:25;;;;;;;2.90;2.70;;;15.00;99.90;;;;;;5080297;28;20204;-49
2022/10/14 10:27:54;;;;;;;4.10;2.67;;;15.00;99.90;;;;;;5074719;28;20255;-50
2022/10/14 10:30:23;;;;;;;3.47;3.17;;;15.00;99.90;;;;;;5085719;28;20582;-51
2022/10/14 10:33:03;;;;;;;3.50;3.20;;;15.10;99.90;;;;;;5075957;28;20227;-51
2022/10/14 10:35:46;;;;;;;4.97;4.40;;;15.00;99.90;;;;;;5084653;28;20231;-52
2022/10/14 10:38:22;;;;;;;5.37;4.00;;;15.00;99.90;;;;;;5082328;28;20217;-52
2022/10/14 10:41:04;;;;;;;4.20;3.73;;;15.00;99.90;;;;;;5081664;28;20219;-52
2022/10/14 10:43:58;;;;;;;4.27;3.97;;;15.00;99.90;;;;;;5083761;28;20223;-51
2022/10/14 10:46:59;;;;;;;4.57;3.43;;;15.00;99.90;;;;;;5092776;28;20200;-51
2022/10/14 10:49:42;;;;;;;6.53;3.53;;;15.00;99.90;;;;;;5084858;28;20273;-52
2022/10/14 10:52:18;;;;;;;4.37;3.97;;;15.10;99.90;;;;;;5081255;28;20227;-52
2022/10/14 10:54:54;;;;;;;3.37;3.07;;;15.10;99.90;;;;;;5090736;28;20543;-52
2022/10/14 10:57:51;;;;;;;5.20;3.40;;;15.10;99.90;;;;;;5083960;28;20630;-52
2022/10/14 11:00:22;;;;;;;3.80;3.33;;;15.10;99.90;;;;;;5090947;28;20204;-52
2022/10/14 11:02:55;;;;;;;2.97;2.77;;;15.10;99.90;;;;;;5080396;28;20349;-54
2022/10/14 11:05:38;;;;;;;2.57;2.27;;;15.00;99.90;;;;;;5086522;28;20246;-51
2022/10/14 11:14:03;;;;;;;3.47;2.83;;;15.10;99.90;;;;;;5057244;28;20331;-51
2022/10/14 11:16:39;;;;;;;3.27;3.00;;;15.10;99.90;;;;;;5078398;28;20215;-51
2022/10/14 11:19:10;;;;;;;3.43;3.07;;;15.10;99.90;;;;;;5079083;28;20203;-52
2022/10/14 11:21:44;;;;;;;7.77;3.43;;;15.20;99.90;;;;;;5090982;28;20673;-52
2022/10/14 11:24:21;;;;;;;2.67;2.50;;;15.30;99.90;;;;;;5085619;28;20201;-51
2022/10/14 11:27:02;;;;;;;3.30;3.07;;;15.30;99.90;;;;;;5071060;28;20200;-52
2022/10/14 11:30:05;;;;;;;3.33;3.03;;;15.40;99.90;;;;;;5085993;28;20192;-52
2022/10/14 11:32:41;;;;;;;4.53;3.30;;;15.50;99.90;;;;;;5074886;28;20224;-51
2022/10/14 11:35:25;;;;;;;4.47;3.13;;;15.70;99.90;;;;;;5088159;28;20196;-51
2022/10/14 11:38:08;;;;;;;3.93;3.67;;;15.80;99.90;;;;;;5089635;28;20224;-51
2022/10/14 11:40:39;;;;;;;2.90;2.70;;;16.10;99.90;;;;;;5078540;28;20208;-52
2022/10/14 11:43:21;;;;;;;2.80;2.60;;;16.30;99.90;;;;;;5082014;28;20208;-52
2022/10/14 11:45:54;;;;;;;3.20;2.90;;;16.50;99.90;;;;;;5089804;28;20201;-52
2022/10/14 11:48:33;;;;;;;2.40;2.27;;;16.70;99.90;;;;;;5086468;28;20636;-52
2022/10/14 11:51:11;;;;;;;2.53;2.33;;;16.80;99.90;;;;;;5076883;28;20204;-52
2022/10/14 11:53:58;;;;;;;2.33;2.23;;;17.00;99.90;;;;;;5078366;28;20216;-52
2022/10/14 11:56:41;;;;;;;3.37;3.17;;;17.20;99.90;;;;;;5071429;28;20209;-52
2022/10/14 11:59:35;;;;;;;3.27;2.33;;;17.20;99.90;;;;;;5087872;28;20212;-52
2022/10/14 12:02:20;;;;;;;3.23;2.70;;;17.20;99.90;;;;;;5088975;28;20221;-51
2022/10/14 12:04:56;;;;;;;2.47;2.37;;;17.30;99.90;;;;;;5080056;28;20278;-51
2022/10/14 12:07:29;;;;;;;3.83;3.33;;;17.30;99.90;;;;;;5070757;28;20704;-51
2022/10/14 12:10:00;;;;;;;4.77;2.13;;;17.30;99.90;;;;;;5080748;28;20197;-52
2022/10/14 12:12:30;;;;;;;2.47;2.27;;;17.40;99.90;;;;;;5070741;28;20304;-51
2022/10/14 12:15:01;;;;;;;2.30;2.20;;;17.40;99.90;;;;;;5071005;28;20197;-52
2022/10/14 12:17:34;;;;;;;3.33;3.07;;;17.40;99.90;;;;;;5076649;28;20254;-52
2022/10/14 12:20:16;;;;;;;2.93;2.73;;;17.40;99.90;;;;;;5078257;28;20200;-51
2022/10/14 12:22:44;;;;;;;3.77;3.47;;;17.40;99.90;;;;;;5085975;28;20746;-52
2022/10/14 12:25:16;;;;;;;3.20;2.97;;;17.40;99.90;;;;;;5089191;28;20201;-51
2022/10/14 12:27:43;;;;;;;7.03;2.70;;;17.40;99.90;;;;;;5089225;28;20196;-51
2022/10/14 12:30:36;;;;;;;6.30;3.33;;;17.40;99.90;;;;;;5088870;28;20204;-51
2022/10/14 12:33:04;;;;;;;3.20;2.63;;;17.20;99.90;;;;;;5081756;28;20212;-51
2022/10/14 12:35:58;;;;;;;3.97;3.23;;;17.00;99.90;;;;;;5089241;28;20683;-52
2022/10/14 12:38:26;;;;;;;4.63;3.27;;;17.00;99.90;;;;;;5089152;28;20559;-52
2022/10/14 12:40:55;;;;;;;3.70;3.03;;;16.90;99.90;;;;;;5089497;28;20201;-52
2022/10/14 12:43:25;;;;;;;3.37;3.07;;;16.80;99.90;;;;;;5070192;28;20375;-52
2022/10/14 12:46:02;;;;;;;3.50;3.40;;;16.80;99.90;;;;;;5077440;28;20206;-52
2022/10/14 12:48:33;;;;;;;4.33;3.03;;;16.70;99.90;;;;;;5075798;28;20201;-52
2022/10/14 12:51:11;;;;;;;3.70;3.17;;;16.60;99.90;;;;;;5070338;28;20726;-52
2022/10/14 12:53:55;;;;;;;5.17;2.93;;;16.50;99.90;;;;;;5089245;28;20220;-52
2022/10/14 12:56:32;;;;;;;2.77;2.67;;;16.40;99.90;;;;;;5089219;28;20203;-52
2022/10/14 12:59:01;;;;;;;3.10;3.00;;;16.40;99.90;;;;;;5085373;28;20212;-52
2022/10/14 13:01:29;;;;;;;6.87;4.47;;;16.50;99.90;;;;;;5078017;28;20193;-51
2022/10/14 13:04:00;;;;;;;3.10;2.87;;;16.50;99.90;;;;;;5074575;28;20726;-52
2022/10/14 13:06:37;;;;;;;3.80;3.50;;;16.50;99.90;;;;;;5078626;28;20275;-52
2022/10/14 13:09:34;;;;;;;3.17;2.97;;;16.50;99.90;;;;;;5073746;28;20574;-52
2022/10/14 13:12:46;;;;;;;3.47;2.73;;;16.30;99.90;;;;;;4997871;28;20315;-52